sensor_id;sensor_type;location;lat;lon;timestamp;P1;durP1;ratioP1;P2;durP2;ratioP2
52033;SDS011;38045;52.988;6.536;2023-02-04T00:01:31;32.25;;;8.98;;
52033;SDS011;38045;52.988;6.536;2023-02-04T00:03:57;40.53;;;9.55;;
52033;SDS011;38045;52.988;6.536;2023-02-04T00:06:22;32.20;;;8.63;;
52033;SDS011;38045;52.988;6.536;2023-02-04T00:08:48;36.95;;;9.52;;
52033;SDS011;38045;52.988;6.536;2023-02-04T00:11:13;38.13;;;8.38;;
52033;SDS011;38045;52.988;6.536;2023-02-04T00:13:39;31.70;;;10.30;;
52033;SDS011;38045;52.988;6.536;2023-02-04T00:16:05;46.53;;;14.05;;
52033;SDS011;38045;52.988;6.536;2023-02-04T00:18:30;52.05;;;14.82;;
52033;SDS011;38045;52.988;6.536;2023-02-04T00:20:56;50.13;;;15.18;;
52033;SDS011;38045;52.988;6.536;2023-02-04T00:23:22;52.20;;;15.35;;
52033;SDS011;38045;52.988;6.536;2023-02-04T00:25:47;44.70;;;9.98;;
52033;SDS011;38045;52.988;6.536;2023-02-04T00:28:13;43.60;;;9.98;;
52033;SDS011;38045;52.988;6.536;2023-02-04T00:30:38;24.23;;;7.68;;
52033;SDS011;38045;52.988;6.536;2023-02-04T00:33:04;23.48;;;6.72;;
52033;SDS011;38045;52.988;6.536;2023-02-04T00:35:30;26.95;;;7.70;;
52033;SDS011;38045;52.988;6.536;2023-02-04T00:37:55;34.45;;;8.82;;
52033;SDS011;38045;52.988;6.536;2023-02-04T00:40:21;33.03;;;6.38;;
52033;SDS011;38045;52.988;6.536;2023-02-04T00:42:46;16.83;;;6.20;;
52033;SDS011;38045;52.988;6.536;2023-02-04T00:45:12;38.10;;;9.00;;
52033;SDS011;38045;52.988;6.536;2023-02-04T00:47:38;34.95;;;7.05;;
52033;SDS011;38045;52.988;6.536;2023-02-04T00:50:04;37.05;;;8.63;;
52033;SDS011;38045;52.988;6.536;2023-02-04T00:52:30;34.72;;;9.55;;
52033;SDS011;38045;52.988;6.536;2023-02-04T00:54:55;37.38;;;9.80;;
52033;SDS011;38045;52.988;6.536;2023-02-04T00:57:21;40.38;;;8.75;;
52033;SDS011;38045;52.988;6.536;2023-02-04T00:59:46;23.17;;;5.72;;
52033;SDS011;38045;52.988;6.536;2023-02-04T01:02:12;35.60;;;7.97;;
52033;SDS011;38045;52.988;6.536;2023-02-04T01:04:38;45.83;;;9.00;;
52033;SDS011;38045;52.988;6.536;2023-02-04T01:07:03;19.80;;;5.80;;
52033;SDS011;38045;52.988;6.536;2023-02-04T01:09:29;30.90;;;7.15;;
52033;SDS011;38045;52.988;6.536;2023-02-04T01:11:54;43.78;;;8.70;;
52033;SDS011;38045;52.988;6.536;2023-02-04T01:14:20;29.73;;;7.55;;
52033;SDS011;38045;52.988;6.536;2023-02-04T01:16:46;38.00;;;8.30;;
52033;SDS011;38045;52.988;6.536;2023-02-04T01:19:11;29.73;;;8.13;;
52033;SDS011;38045;52.988;6.536;2023-02-04T01:21:37;29.42;;;7.28;;
52033;SDS011;38045;52.988;6.536;2023-02-04T01:24:03;39.88;;;7.13;;
52033;SDS011;38045;52.988;6.536;2023-02-04T01:26:28;40.65;;;7.95;;
52033;SDS011;38045;52.988;6.536;2023-02-04T01:28:54;29.02;;;7.53;;
52033;SDS011;38045;52.988;6.536;2023-02-04T01:31:19;29.92;;;6.47;;
52033;SDS011;38045;52.988;6.536;2023-02-04T01:33:45;44.35;;;9.30;;
52033;SDS011;38045;52.988;6.536;2023-02-04T01:36:11;38.42;;;5.95;;
52033;SDS011;38045;52.988;6.536;2023-02-04T01:38:37;26.98;;;8.93;;
52033;SDS011;38045;52.988;6.536;2023-02-04T01:41:03;31.80;;;7.25;;
52033;SDS011;38045;52.988;6.536;2023-02-04T01:43:29;31.80;;;9.30;;
52033;SDS011;38045;52.988;6.536;2023-02-04T01:45:55;37.17;;;11.63;;
52033;SDS011;38045;52.988;6.536;2023-02-04T01:48:21;25.45;;;7.10;;
52033;SDS011;38045;52.988;6.536;2023-02-04T01:50:49;27.00;;;5.78;;
52033;SDS011;38045;52.988;6.536;2023-02-04T01:53:24;30.13;;;7.07;;
52033;SDS011;38045;52.988;6.536;2023-02-04T01:55:50;33.25;;;7.90;;
52033;SDS011;38045;52.988;6.536;2023-02-04T01:58:16;36.80;;;9.35;;
52033;SDS011;38045;52.988;6.536;2023-02-04T02:00:43;24.45;;;6.60;;
52033;SDS011;38045;52.988;6.536;2023-02-04T02:03:08;35.35;;;9.00;;
52033;SDS011;38045;52.988;6.536;2023-02-04T02:08:09;33.72;;;7.15;;
52033;SDS011;38045;52.988;6.536;2023-02-04T02:10:35;39.30;;;8.95;;
52033;SDS011;38045;52.988;6.536;2023-02-04T02:13:02;25.98;;;6.18;;
52033;SDS011;38045;52.988;6.536;2023-02-04T02:15:29;42.67;;;8.25;;
52033;SDS011;38045;52.988;6.536;2023-02-04T02:17:55;33.00;;;7.82;;
52033;SDS011;38045;52.988;6.536;2023-02-04T02:20:21;37.35;;;6.82;;
52033;SDS011;38045;52.988;6.536;2023-02-04T02:25:30;41.47;;;9.88;;
52033;SDS011;38045;52.988;6.536;2023-02-04T02:27:56;22.58;;;5.78;;
52033;SDS011;38045;52.988;6.536;2023-02-04T02:30:23;35.35;;;10.68;;
52033;SDS011;38045;52.988;6.536;2023-02-04T02:32:52;36.80;;;9.52;;
52033;SDS011;38045;52.988;6.536;2023-02-04T02:35:18;31.92;;;7.90;;
52033;SDS011;38045;52.988;6.536;2023-02-04T02:37:43;30.13;;;8.27;;
52033;SDS011;38045;52.988;6.536;2023-02-04T02:40:09;25.20;;;7.85;;
52033;SDS011;38045;52.988;6.536;2023-02-04T02:42:36;34.67;;;7.95;;
52033;SDS011;38045;52.988;6.536;2023-02-04T02:45:02;31.15;;;7.57;;
52033;SDS011;38045;52.988;6.536;2023-02-04T02:47:34;35.03;;;8.35;;
52033;SDS011;38045;52.988;6.536;2023-02-04T02:50:00;23.10;;;7.25;;
52033;SDS011;38045;52.988;6.536;2023-02-04T02:52:26;37.72;;;8.45;;
52033;SDS011;38045;52.988;6.536;2023-02-04T02:54:51;27.95;;;6.28;;
52033;SDS011;38045;52.988;6.536;2023-02-04T02:57:18;30.70;;;7.95;;
52033;SDS011;38045;52.988;6.536;2023-02-04T02:59:46;26.90;;;8.20;;
52033;SDS011;38045;52.988;6.536;2023-02-04T03:02:13;28.45;;;7.45;;
52033;SDS011;38045;52.988;6.536;2023-02-04T03:04:44;35.35;;;7.85;;
52033;SDS011;38045;52.988;6.536;2023-02-04T03:07:14;25.38;;;7.38;;
52033;SDS011;38045;52.988;6.536;2023-02-04T03:09:42;32.95;;;7.75;;
52033;SDS011;38045;52.988;6.536;2023-02-04T03:12:08;50.95;;;7.88;;
52033;SDS011;38045;52.988;6.536;2023-02-04T03:14:33;25.25;;;6.05;;
52033;SDS011;38045;52.988;6.536;2023-02-04T03:16:59;33.65;;;8.25;;
52033;SDS011;38045;52.988;6.536;2023-02-04T03:19:28;42.67;;;10.82;;
52033;SDS011;38045;52.988;6.536;2023-02-04T03:21:54;34.05;;;7.65;;
52033;SDS011;38045;52.988;6.536;2023-02-04T03:24:21;30.70;;;6.93;;
52033;SDS011;38045;52.988;6.536;2023-02-04T03:26:47;30.40;;;7.38;;
52033;SDS011;38045;52.988;6.536;2023-02-04T03:29:13;43.72;;;11.00;;
52033;SDS011;38045;52.988;6.536;2023-02-04T03:31:39;35.45;;;6.80;;
52033;SDS011;38045;52.988;6.536;2023-02-04T03:34:05;26.88;;;7.00;;
52033;SDS011;38045;52.988;6.536;2023-02-04T03:36:31;33.35;;;7.40;;
52033;SDS011;38045;52.988;6.536;2023-02-04T03:38:56;23.52;;;7.00;;
52033;SDS011;38045;52.988;6.536;2023-02-04T03:41:22;35.45;;;9.18;;
52033;SDS011;38045;52.988;6.536;2023-02-04T03:43:48;45.40;;;9.60;;
52033;SDS011;38045;52.988;6.536;2023-02-04T03:46:13;35.33;;;7.28;;
52033;SDS011;38045;52.988;6.536;2023-02-04T03:48:39;26.27;;;6.60;;
52033;SDS011;38045;52.988;6.536;2023-02-04T03:51:04;37.60;;;9.27;;
52033;SDS011;38045;52.988;6.536;2023-02-04T03:53:30;35.45;;;9.65;;
52033;SDS011;38045;52.988;6.536;2023-02-04T03:55:56;30.20;;;6.85;;
52033;SDS011;38045;52.988;6.536;2023-02-04T03:58:22;31.42;;;7.68;;
52033;SDS011;38045;52.988;6.536;2023-02-04T04:00:48;33.20;;;8.27;;
52033;SDS011;38045;52.988;6.536;2023-02-04T04:03:14;30.65;;;7.28;;
52033;SDS011;38045;52.988;6.536;2023-02-04T04:05:39;45.72;;;10.20;;
52033;SDS011;38045;52.988;6.536;2023-02-04T04:08:05;31.70;;;7.47;;
52033;SDS011;38045;52.988;6.536;2023-02-04T04:10:31;31.98;;;7.85;;
52033;SDS011;38045;52.988;6.536;2023-02-04T04:12:56;36.05;;;8.73;;
52033;SDS011;38045;52.988;6.536;2023-02-04T04:15:22;38.25;;;8.02;;
52033;SDS011;38045;52.988;6.536;2023-02-04T04:17:48;36.50;;;7.53;;
52033;SDS011;38045;52.988;6.536;2023-02-04T04:20:14;38.90;;;8.15;;
52033;SDS011;38045;52.988;6.536;2023-02-04T04:22:39;28.95;;;10.57;;
52033;SDS011;38045;52.988;6.536;2023-02-04T04:25:05;43.97;;;9.45;;
52033;SDS011;38045;52.988;6.536;2023-02-04T04:27:31;30.52;;;6.93;;
52033;SDS011;38045;52.988;6.536;2023-02-04T04:29:57;28.20;;;6.43;;
52033;SDS011;38045;52.988;6.536;2023-02-04T04:32:23;31.80;;;6.28;;
52033;SDS011;38045;52.988;6.536;2023-02-04T04:34:48;34.13;;;7.65;;
52033;SDS011;38045;52.988;6.536;2023-02-04T04:37:14;37.33;;;7.18;;
52033;SDS011;38045;52.988;6.536;2023-02-04T04:39:40;44.45;;;8.25;;
52033;SDS011;38045;52.988;6.536;2023-02-04T04:42:05;38.58;;;8.93;;
52033;SDS011;38045;52.988;6.536;2023-02-04T04:44:31;43.75;;;9.90;;
52033;SDS011;38045;52.988;6.536;2023-02-04T04:46:56;28.63;;;6.32;;
52033;SDS011;38045;52.988;6.536;2023-02-04T04:49:22;33.40;;;8.38;;
52033;SDS011;38045;52.988;6.536;2023-02-04T04:51:48;43.67;;;8.40;;
52033;SDS011;38045;52.988;6.536;2023-02-04T04:54:14;40.03;;;8.88;;
52033;SDS011;38045;52.988;6.536;2023-02-04T04:56:39;25.88;;;7.47;;
52033;SDS011;38045;52.988;6.536;2023-02-04T04:59:05;52.15;;;9.48;;
52033;SDS011;38045;52.988;6.536;2023-02-04T05:01:31;39.90;;;7.63;;
52033;SDS011;38045;52.988;6.536;2023-02-04T05:03:56;38.75;;;9.70;;
52033;SDS011;38045;52.988;6.536;2023-02-04T05:06:22;28.98;;;7.35;;
52033;SDS011;38045;52.988;6.536;2023-02-04T05:08:52;36.10;;;8.00;;
52033;SDS011;38045;52.988;6.536;2023-02-04T05:11:18;29.00;;;7.22;;
52033;SDS011;38045;52.988;6.536;2023-02-04T05:13:44;54.08;;;9.90;;
52033;SDS011;38045;52.988;6.536;2023-02-04T05:16:10;24.20;;;7.25;;
52033;SDS011;38045;52.988;6.536;2023-02-04T05:18:40;34.47;;;7.50;;
52033;SDS011;38045;52.988;6.536;2023-02-04T05:21:05;34.80;;;9.40;;
52033;SDS011;38045;52.988;6.536;2023-02-04T05:23:32;49.75;;;13.00;;
52033;SDS011;38045;52.988;6.536;2023-02-04T05:25:57;33.65;;;8.25;;
52033;SDS011;38045;52.988;6.536;2023-02-04T05:28:23;19.08;;;6.43;;
52033;SDS011;38045;52.988;6.536;2023-02-04T05:30:49;25.92;;;6.13;;
52033;SDS011;38045;52.988;6.536;2023-02-04T05:33:17;27.48;;;6.80;;
52033;SDS011;38045;52.988;6.536;2023-02-04T05:35:43;30.10;;;6.82;;
52033;SDS011;38045;52.988;6.536;2023-02-04T05:38:08;32.30;;;5.70;;
52033;SDS011;38045;52.988;6.536;2023-02-04T05:40:34;39.95;;;9.48;;
52033;SDS011;38045;52.988;6.536;2023-02-04T05:43:00;27.98;;;7.95;;
52033;SDS011;38045;52.988;6.536;2023-02-04T05:45:25;24.80;;;7.07;;
52033;SDS011;38045;52.988;6.536;2023-02-04T05:47:51;29.73;;;6.88;;
52033;SDS011;38045;52.988;6.536;2023-02-04T05:50:17;40.10;;;8.40;;
52033;SDS011;38045;52.988;6.536;2023-02-04T05:52:42;35.92;;;6.40;;
52033;SDS011;38045;52.988;6.536;2023-02-04T05:55:09;28.83;;;7.40;;
52033;SDS011;38045;52.988;6.536;2023-02-04T05:57:36;36.92;;;8.38;;
52033;SDS011;38045;52.988;6.536;2023-02-04T06:00:03;41.60;;;9.05;;
52033;SDS011;38045;52.988;6.536;2023-02-04T06:02:30;45.85;;;8.38;;
52033;SDS011;38045;52.988;6.536;2023-02-04T06:04:55;26.48;;;6.00;;
52033;SDS011;38045;52.988;6.536;2023-02-04T06:07:21;24.45;;;7.57;;
52033;SDS011;38045;52.988;6.536;2023-02-04T06:09:46;33.90;;;7.60;;
52033;SDS011;38045;52.988;6.536;2023-02-04T06:12:12;39.22;;;8.80;;
52033;SDS011;38045;52.988;6.536;2023-02-04T06:14:38;36.03;;;6.80;;
52033;SDS011;38045;52.988;6.536;2023-02-04T06:17:04;27.23;;;5.28;;
52033;SDS011;38045;52.988;6.536;2023-02-04T06:19:29;39.53;;;9.57;;
52033;SDS011;38045;52.988;6.536;2023-02-04T06:21:55;31.15;;;7.63;;
52033;SDS011;38045;52.988;6.536;2023-02-04T06:24:20;26.35;;;5.50;;
52033;SDS011;38045;52.988;6.536;2023-02-04T06:26:46;29.77;;;6.05;;
52033;SDS011;38045;52.988;6.536;2023-02-04T06:29:11;29.25;;;7.90;;
52033;SDS011;38045;52.988;6.536;2023-02-04T06:31:37;29.95;;;6.40;;
52033;SDS011;38045;52.988;6.536;2023-02-04T06:34:03;37.65;;;7.30;;
52033;SDS011;38045;52.988;6.536;2023-02-04T06:36:29;28.42;;;6.95;;
52033;SDS011;38045;52.988;6.536;2023-02-04T06:38:55;30.80;;;8.43;;
52033;SDS011;38045;52.988;6.536;2023-02-04T06:41:21;25.20;;;6.13;;
52033;SDS011;38045;52.988;6.536;2023-02-04T06:43:47;16.17;;;5.22;;
52033;SDS011;38045;52.988;6.536;2023-02-04T06:46:13;13.20;;;4.18;;
52033;SDS011;38045;52.988;6.536;2023-02-04T06:48:38;25.38;;;6.57;;
52033;SDS011;38045;52.988;6.536;2023-02-04T06:51:04;25.08;;;6.63;;
52033;SDS011;38045;52.988;6.536;2023-02-04T06:53:30;29.25;;;6.68;;
52033;SDS011;38045;52.988;6.536;2023-02-04T06:55:55;16.33;;;3.20;;
52033;SDS011;38045;52.988;6.536;2023-02-04T06:58:21;14.82;;;4.93;;
52033;SDS011;38045;52.988;6.536;2023-02-04T07:00:47;20.77;;;6.10;;
52033;SDS011;38045;52.988;6.536;2023-02-04T07:03:12;11.18;;;4.07;;
52033;SDS011;38045;52.988;6.536;2023-02-04T07:05:38;16.48;;;3.63;;
52033;SDS011;38045;52.988;6.536;2023-02-04T07:08:03;12.27;;;3.65;;
52033;SDS011;38045;52.988;6.536;2023-02-04T07:10:29;16.38;;;4.95;;
52033;SDS011;38045;52.988;6.536;2023-02-04T07:12:56;23.48;;;4.88;;
52033;SDS011;38045;52.988;6.536;2023-02-04T07:15:22;11.15;;;4.10;;
52033;SDS011;38045;52.988;6.536;2023-02-04T07:17:47;15.23;;;3.42;;
52033;SDS011;38045;52.988;6.536;2023-02-04T07:20:13;6.57;;;2.17;;
52033;SDS011;38045;52.988;6.536;2023-02-04T07:22:39;15.75;;;4.40;;
52033;SDS011;38045;52.988;6.536;2023-02-04T07:25:07;20.25;;;4.25;;
52033;SDS011;38045;52.988;6.536;2023-02-04T07:27:34;8.25;;;3.13;;
52033;SDS011;38045;52.988;6.536;2023-02-04T07:29:59;23.30;;;5.20;;
52033;SDS011;38045;52.988;6.536;2023-02-04T07:32:25;16.08;;;3.33;;
52033;SDS011;38045;52.988;6.536;2023-02-04T07:34:52;22.38;;;4.50;;
52033;SDS011;38045;52.988;6.536;2023-02-04T07:37:18;15.82;;;3.03;;
52033;SDS011;38045;52.988;6.536;2023-02-04T07:39:44;16.58;;;4.45;;
52033;SDS011;38045;52.988;6.536;2023-02-04T07:42:10;10.35;;;3.15;;
52033;SDS011;38045;52.988;6.536;2023-02-04T07:44:35;16.90;;;3.22;;
52033;SDS011;38045;52.988;6.536;2023-02-04T07:47:01;23.02;;;4.47;;
52033;SDS011;38045;52.988;6.536;2023-02-04T07:49:27;11.13;;;3.13;;
52033;SDS011;38045;52.988;6.536;2023-02-04T07:51:53;14.73;;;3.70;;
52033;SDS011;38045;52.988;6.536;2023-02-04T07:54:18;20.90;;;4.30;;
52033;SDS011;38045;52.988;6.536;2023-02-04T07:56:44;21.50;;;5.55;;
52033;SDS011;38045;52.988;6.536;2023-02-04T07:59:10;17.73;;;3.88;;
52033;SDS011;38045;52.988;6.536;2023-02-04T08:01:35;11.93;;;3.50;;
52033;SDS011;38045;52.988;6.536;2023-02-04T08:04:01;14.82;;;4.05;;
52033;SDS011;38045;52.988;6.536;2023-02-04T08:06:26;9.48;;;2.53;;
52033;SDS011;38045;52.988;6.536;2023-02-04T08:08:52;16.92;;;4.45;;
52033;SDS011;38045;52.988;6.536;2023-02-04T08:11:17;5.65;;;1.83;;
52033;SDS011;38045;52.988;6.536;2023-02-04T08:13:43;13.90;;;2.60;;
52033;SDS011;38045;52.988;6.536;2023-02-04T08:16:08;8.48;;;1.85;;
52033;SDS011;38045;52.988;6.536;2023-02-04T08:18:34;11.48;;;2.28;;
52033;SDS011;38045;52.988;6.536;2023-02-04T08:21:00;14.80;;;3.58;;
52033;SDS011;38045;52.988;6.536;2023-02-04T08:23:27;15.23;;;3.38;;
52033;SDS011;38045;52.988;6.536;2023-02-04T08:25:52;7.85;;;1.77;;
52033;SDS011;38045;52.988;6.536;2023-02-04T08:28:18;12.95;;;3.05;;
52033;SDS011;38045;52.988;6.536;2023-02-04T08:30:43;17.85;;;4.53;;
52033;SDS011;38045;52.988;6.536;2023-02-04T08:33:09;15.02;;;3.00;;
52033;SDS011;38045;52.988;6.536;2023-02-04T08:35:34;11.05;;;2.15;;
52033;SDS011;38045;52.988;6.536;2023-02-04T08:38:00;9.20;;;2.65;;
52033;SDS011;38045;52.988;6.536;2023-02-04T08:40:26;19.70;;;3.60;;
52033;SDS011;38045;52.988;6.536;2023-02-04T08:42:51;16.13;;;3.28;;
52033;SDS011;38045;52.988;6.536;2023-02-04T08:45:17;21.17;;;4.68;;
52033;SDS011;38045;52.988;6.536;2023-02-04T08:47:42;13.70;;;3.17;;
52033;SDS011;38045;52.988;6.536;2023-02-04T08:50:09;13.88;;;2.88;;
52033;SDS011;38045;52.988;6.536;2023-02-04T08:52:35;13.50;;;3.55;;
52033;SDS011;38045;52.988;6.536;2023-02-04T08:55:01;16.13;;;3.17;;
52033;SDS011;38045;52.988;6.536;2023-02-04T08:57:26;12.18;;;2.67;;
52033;SDS011;38045;52.988;6.536;2023-02-04T08:59:52;9.88;;;3.33;;
52033;SDS011;38045;52.988;6.536;2023-02-04T09:02:17;15.27;;;3.80;;
52033;SDS011;38045;52.988;6.536;2023-02-04T09:04:43;6.05;;;2.85;;
52033;SDS011;38045;52.988;6.536;2023-02-04T09:07:08;23.77;;;3.17;;
52033;SDS011;38045;52.988;6.536;2023-02-04T09:09:34;10.65;;;2.22;;
52033;SDS011;38045;52.988;6.536;2023-02-04T09:12:00;14.23;;;3.08;;
52033;SDS011;38045;52.988;6.536;2023-02-04T09:14:26;15.30;;;3.92;;
52033;SDS011;38045;52.988;6.536;2023-02-04T09:16:51;10.82;;;1.83;;
52033;SDS011;38045;52.988;6.536;2023-02-04T09:19:17;13.55;;;3.20;;
52033;SDS011;38045;52.988;6.536;2023-02-04T09:21:48;8.07;;;2.05;;
52033;SDS011;38045;52.988;6.536;2023-02-04T09:24:13;7.90;;;2.83;;
52033;SDS011;38045;52.988;6.536;2023-02-04T09:26:39;9.00;;;1.90;;
52033;SDS011;38045;52.988;6.536;2023-02-04T09:29:04;11.60;;;2.55;;
52033;SDS011;38045;52.988;6.536;2023-02-04T09:31:30;5.80;;;2.08;;
52033;SDS011;38045;52.988;6.536;2023-02-04T09:33:55;9.45;;;2.63;;
52033;SDS011;38045;52.988;6.536;2023-02-04T09:36:21;10.13;;;1.77;;
52033;SDS011;38045;52.988;6.536;2023-02-04T09:38:47;13.55;;;2.03;;
52033;SDS011;38045;52.988;6.536;2023-02-04T09:41:12;8.55;;;2.53;;
52033;SDS011;38045;52.988;6.536;2023-02-04T09:43:42;9.77;;;1.73;;
52033;SDS011;38045;52.988;6.536;2023-02-04T09:46:15;9.20;;;2.75;;
52033;SDS011;38045;52.988;6.536;2023-02-04T09:48:45;5.72;;;3.33;;
52033;SDS011;38045;52.988;6.536;2023-02-04T09:51:17;5.60;;;1.67;;
52033;SDS011;38045;52.988;6.536;2023-02-04T09:53:47;8.05;;;2.50;;
52033;SDS011;38045;52.988;6.536;2023-02-04T09:56:14;6.70;;;2.35;;
52033;SDS011;38045;52.988;6.536;2023-02-04T09:58:41;12.38;;;3.28;;
52033;SDS011;38045;52.988;6.536;2023-02-04T10:01:14;15.43;;;3.35;;
52033;SDS011;38045;52.988;6.536;2023-02-04T10:03:45;15.55;;;3.33;;
52033;SDS011;38045;52.988;6.536;2023-02-04T10:06:13;12.80;;;3.20;;
52033;SDS011;38045;52.988;6.536;2023-02-04T10:08:40;4.30;;;1.48;;
52033;SDS011;38045;52.988;6.536;2023-02-04T10:11:07;9.77;;;3.05;;
52033;SDS011;38045;52.988;6.536;2023-02-04T10:13:34;5.95;;;2.42;;
52033;SDS011;38045;52.988;6.536;2023-02-04T10:18:34;12.45;;;2.20;;
52033;SDS011;38045;52.988;6.536;2023-02-04T10:21:07;7.05;;;2.47;;
52033;SDS011;38045;52.988;6.536;2023-02-04T10:23:40;8.65;;;2.47;;
52033;SDS011;38045;52.988;6.536;2023-02-04T10:26:10;7.13;;;1.63;;
52033;SDS011;38045;52.988;6.536;2023-02-04T10:28:36;10.10;;;2.20;;
52033;SDS011;38045;52.988;6.536;2023-02-04T10:31:04;6.88;;;2.05;;
52033;SDS011;38045;52.988;6.536;2023-02-04T10:33:32;6.60;;;2.05;;
52033;SDS011;38045;52.988;6.536;2023-02-04T10:36:01;17.63;;;4.50;;
52033;SDS011;38045;52.988;6.536;2023-02-04T10:38:28;5.93;;;1.83;;
52033;SDS011;38045;52.988;6.536;2023-02-04T10:41:01;11.50;;;1.65;;
52033;SDS011;38045;52.988;6.536;2023-02-04T10:43:30;9.23;;;2.78;;
52033;SDS011;38045;52.988;6.536;2023-02-04T10:46:03;5.88;;;2.03;;
52033;SDS011;38045;52.988;6.536;2023-02-04T10:48:29;10.85;;;2.33;;
52033;SDS011;38045;52.988;6.536;2023-02-04T10:51:04;6.53;;;2.55;;
52033;SDS011;38045;52.988;6.536;2023-02-04T10:53:30;8.60;;;2.05;;
52033;SDS011;38045;52.988;6.536;2023-02-04T10:56:16;6.50;;;1.98;;
52033;SDS011;38045;52.988;6.536;2023-02-04T10:58:43;9.80;;;2.38;;
52033;SDS011;38045;52.988;6.536;2023-02-04T11:01:10;9.57;;;2.88;;
52033;SDS011;38045;52.988;6.536;2023-02-04T11:03:36;4.93;;;1.10;;
52033;SDS011;38045;52.988;6.536;2023-02-04T11:06:04;7.05;;;2.10;;
52033;SDS011;38045;52.988;6.536;2023-02-04T11:08:43;9.77;;;1.88;;
52033;SDS011;38045;52.988;6.536;2023-02-04T11:11:23;10.48;;;2.88;;
52033;SDS011;38045;52.988;6.536;2023-02-04T11:16:25;9.63;;;2.75;;
52033;SDS011;38045;52.988;6.536;2023-02-04T11:26:50;8.50;;;1.77;;
52033;SDS011;38045;52.988;6.536;2023-02-04T11:29:32;7.22;;;1.83;;
52033;SDS011;38045;52.988;6.536;2023-02-04T11:32:54;8.65;;;3.30;;
52033;SDS011;38045;52.988;6.536;2023-02-04T11:34:52;4.88;;;1.17;;
52033;SDS011;38045;52.988;6.536;2023-02-04T11:37:32;9.23;;;1.35;;
52033;SDS011;38045;52.988;6.536;2023-02-04T11:40:00;5.80;;;1.85;;
52033;SDS011;38045;52.988;6.536;2023-02-04T11:42:41;7.18;;;3.38;;
52033;SDS011;38045;52.988;6.536;2023-02-04T11:45:19;9.05;;;2.00;;
52033;SDS011;38045;52.988;6.536;2023-02-04T11:47:47;5.65;;;1.67;;
52033;SDS011;38045;52.988;6.536;2023-02-04T11:50:22;4.53;;;0.93;;
52033;SDS011;38045;52.988;6.536;2023-02-04T11:52:49;1.60;;;0.50;;
52033;SDS011;38045;52.988;6.536;2023-02-04T11:55:15;7.00;;;1.30;;
52033;SDS011;38045;52.988;6.536;2023-02-04T11:57:43;5.80;;;2.22;;
52033;SDS011;38045;52.988;6.536;2023-02-04T12:00:16;3.30;;;0.98;;
52033;SDS011;38045;52.988;6.536;2023-02-04T12:02:48;8.02;;;1.30;;
52033;SDS011;38045;52.988;6.536;2023-02-04T12:05:16;6.88;;;1.98;;
52033;SDS011;38045;52.988;6.536;2023-02-04T12:07:44;2.60;;;0.55;;
52033;SDS011;38045;52.988;6.536;2023-02-04T12:12:48;4.03;;;0.77;;
52033;SDS011;38045;52.988;6.536;2023-02-04T12:18:03;7.45;;;2.05;;
52033;SDS011;38045;52.988;6.536;2023-02-04T12:20:31;9.02;;;1.33;;
52033;SDS011;38045;52.988;6.536;2023-02-04T12:22:58;9.07;;;1.98;;
52033;SDS011;38045;52.988;6.536;2023-02-04T12:25:23;12.23;;;1.40;;
52033;SDS011;38045;52.988;6.536;2023-02-04T12:27:50;5.20;;;1.45;;
52033;SDS011;38045;52.988;6.536;2023-02-04T12:30:18;9.90;;;2.17;;
52033;SDS011;38045;52.988;6.536;2023-02-04T12:32:44;2.40;;;0.82;;
52033;SDS011;38045;52.988;6.536;2023-02-04T12:35:10;4.82;;;0.75;;
52033;SDS011;38045;52.988;6.536;2023-02-04T12:37:36;5.70;;;0.90;;
52033;SDS011;38045;52.988;6.536;2023-02-04T12:40:02;4.25;;;1.13;;
52033;SDS011;38045;52.988;6.536;2023-02-04T12:42:27;5.18;;;1.42;;
52033;SDS011;38045;52.988;6.536;2023-02-04T12:44:53;3.22;;;0.80;;
52033;SDS011;38045;52.988;6.536;2023-02-04T12:47:18;4.30;;;1.30;;
52033;SDS011;38045;52.988;6.536;2023-02-04T12:49:44;4.10;;;1.27;;
52033;SDS011;38045;52.988;6.536;2023-02-04T12:52:10;2.42;;;0.80;;
52033;SDS011;38045;52.988;6.536;2023-02-04T12:54:36;4.20;;;0.90;;
52033;SDS011;38045;52.988;6.536;2023-02-04T12:57:02;4.13;;;1.33;;
52033;SDS011;38045;52.988;6.536;2023-02-04T12:59:27;4.22;;;0.75;;
52033;SDS011;38045;52.988;6.536;2023-02-04T13:01:55;2.05;;;0.85;;
52033;SDS011;38045;52.988;6.536;2023-02-04T13:04:21;7.20;;;1.40;;
52033;SDS011;38045;52.988;6.536;2023-02-04T13:06:47;3.38;;;1.25;;
52033;SDS011;38045;52.988;6.536;2023-02-04T13:09:12;7.55;;;1.58;;
52033;SDS011;38045;52.988;6.536;2023-02-04T13:11:38;9.07;;;1.25;;
52033;SDS011;38045;52.988;6.536;2023-02-04T13:14:03;4.78;;;1.70;;
52033;SDS011;38045;52.988;6.536;2023-02-04T13:16:29;2.65;;;1.00;;
52033;SDS011;38045;52.988;6.536;2023-02-04T13:18:54;6.43;;;2.13;;
52033;SDS011;38045;52.988;6.536;2023-02-04T13:21:20;6.55;;;2.22;;
52033;SDS011;38045;52.988;6.536;2023-02-04T13:23:47;5.22;;;1.45;;
52033;SDS011;38045;52.988;6.536;2023-02-04T13:26:12;6.10;;;1.15;;
52033;SDS011;38045;52.988;6.536;2023-02-04T13:28:38;1.00;;;0.57;;
52033;SDS011;38045;52.988;6.536;2023-02-04T13:31:03;4.13;;;1.23;;
52033;SDS011;38045;52.988;6.536;2023-02-04T13:33:29;4.65;;;0.63;;
52033;SDS011;38045;52.988;6.536;2023-02-04T13:35:55;7.57;;;2.15;;
52033;SDS011;38045;52.988;6.536;2023-02-04T13:38:21;3.28;;;1.27;;
52033;SDS011;38045;52.988;6.536;2023-02-04T13:40:47;3.05;;;0.70;;
52033;SDS011;38045;52.988;6.536;2023-02-04T13:43:12;7.60;;;0.90;;
52033;SDS011;38045;52.988;6.536;2023-02-04T13:45:38;8.63;;;1.27;;
52033;SDS011;38045;52.988;6.536;2023-02-04T13:48:04;2.58;;;0.75;;
52033;SDS011;38045;52.988;6.536;2023-02-04T13:50:30;4.90;;;1.13;;
52033;SDS011;38045;52.988;6.536;2023-02-04T13:52:55;4.22;;;1.20;;
52033;SDS011;38045;52.988;6.536;2023-02-04T13:55:21;4.47;;;1.20;;
52033;SDS011;38045;52.988;6.536;2023-02-04T13:57:47;2.80;;;1.05;;
52033;SDS011;38045;52.988;6.536;2023-02-04T14:00:12;3.00;;;1.55;;
52033;SDS011;38045;52.988;6.536;2023-02-04T14:02:38;1.98;;;0.93;;
52033;SDS011;38045;52.988;6.536;2023-02-04T14:05:04;5.80;;;1.75;;
52033;SDS011;38045;52.988;6.536;2023-02-04T14:07:30;3.85;;;1.02;;
52033;SDS011;38045;52.988;6.536;2023-02-04T14:09:57;3.38;;;1.65;;
52033;SDS011;38045;52.988;6.536;2023-02-04T14:12:23;3.90;;;1.05;;
52033;SDS011;38045;52.988;6.536;2023-02-04T14:14:48;5.00;;;0.93;;
52033;SDS011;38045;52.988;6.536;2023-02-04T14:17:14;6.88;;;2.38;;
52033;SDS011;38045;52.988;6.536;2023-02-04T14:19:40;2.80;;;0.60;;
52033;SDS011;38045;52.988;6.536;2023-02-04T14:22:05;9.65;;;2.28;;
52033;SDS011;38045;52.988;6.536;2023-02-04T14:24:31;2.17;;;1.33;;
52033;SDS011;38045;52.988;6.536;2023-02-04T14:26:57;3.50;;;0.77;;
52033;SDS011;38045;52.988;6.536;2023-02-04T14:29:23;3.53;;;1.55;;
52033;SDS011;38045;52.988;6.536;2023-02-04T14:31:48;3.92;;;1.30;;
52033;SDS011;38045;52.988;6.536;2023-02-04T14:34:14;3.60;;;1.88;;
52033;SDS011;38045;52.988;6.536;2023-02-04T14:36:39;1.98;;;1.08;;
52033;SDS011;38045;52.988;6.536;2023-02-04T14:39:05;2.55;;;0.75;;
52033;SDS011;38045;52.988;6.536;2023-02-04T14:41:31;8.80;;;1.73;;
52033;SDS011;38045;52.988;6.536;2023-02-04T14:43:56;8.02;;;1.90;;
52033;SDS011;38045;52.988;6.536;2023-02-04T14:46:22;5.45;;;1.48;;
52033;SDS011;38045;52.988;6.536;2023-02-04T14:48:48;1.40;;;1.00;;
52033;SDS011;38045;52.988;6.536;2023-02-04T14:51:16;2.08;;;1.08;;
52033;SDS011;38045;52.988;6.536;2023-02-04T14:53:43;3.05;;;1.35;;
52033;SDS011;38045;52.988;6.536;2023-02-04T14:56:09;5.57;;;2.42;;
52033;SDS011;38045;52.988;6.536;2023-02-04T14:58:34;2.97;;;1.13;;